Time;durP1;ratioP1;P1;durP2;ratioP2;P2;SDS_P1;SDS_P2;PMS_P1;PMS_P2;Temp;Humidity;BMP_temperature;BMP_pressure;BME280_temperature;BME280_humidity;BME280_pressure;Samples;Min_cycle;Max_cycle;Signal;HPM_P1;HPM_P2
2021/12/01 00:03:06;;;;;;;9.88;4.60;;;9.40;99.90;;;;;;10558761;28;20067;-69
2021/12/01 00:08:07;;;;;;;9.55;4.28;;;9.50;99.90;;;;;;10570518;28;20073;-70
2021/12/01 00:13:11;;;;;;;8.68;4.93;;;9.50;99.90;;;;;;10571204;28;20104;-68
2021/12/01 00:18:12;;;;;;;7.90;4.65;;;9.50;99.90;;;;;;10572290;28;20051;-67
2021/12/01 00:23:13;;;;;;;7.47;4.43;;;9.50;99.90;;;;;;10551340;28;20047;-67
2021/12/01 00:28:14;;;;;;;8.15;4.72;;;9.50;99.90;;;;;;10569383;28;20520;-68
2021/12/01 00:33:23;;;;;;;8.45;5.25;;;9.50;99.90;;;;;;10567851;28;20048;-65
2021/12/01 00:38:25;;;;;;;9.88;4.65;;;9.50;99.90;;;;;;10564151;28;20043;-65
2021/12/01 00:43:26;;;;;;;9.77;6.05;;;9.50;99.90;;;;;;10563832;28;20036;-70
2021/12/01 00:48:27;;;;;;;8.75;4.63;;;9.50;99.90;;;;;;10551108;28;20382;-69
2021/12/01 00:53:28;;;;;;;7.53;4.22;;;9.60;99.90;;;;;;10563279;28;20420;-66
2021/12/01 00:58:29;;;;;;;7.50;4.90;;;9.60;99.90;;;;;;10567616;28;20035;-67
2021/12/01 01:03:31;;;;;;;8.15;4.30;;;9.60;99.90;;;;;;10568581;28;20051;-69
2021/12/01 01:08:32;;;;;;;8.35;4.55;;;9.60;99.90;;;;;;10568986;28;20115;-67
2021/12/01 01:19:02;;;;;;;8.13;4.20;;;9.60;99.90;;;;;;10566950;28;20304;-69
2021/12/01 01:24:04;;;;;;;7.75;4.15;;;9.60;99.90;;;;;;10553572;28;20089;-69
2021/12/01 01:29:06;;;;;;;10.57;4.40;;;9.60;99.90;;;;;;10561967;28;20504;-70
2021/12/01 01:34:06;;;;;;;7.68;4.70;;;9.60;99.90;;;;;;10566577;28;20079;-69
2021/12/01 01:39:07;;;;;;;6.43;4.00;;;9.70;99.90;;;;;;10555038;28;20091;-70
2021/12/01 01:44:08;;;;;;;5.82;3.65;;;9.60;99.90;;;;;;10564104;28;20040;-70
2021/12/01 01:49:20;;;;;;;8.20;3.70;;;9.80;99.90;;;;;;10564252;28;21303;-70
2021/12/01 01:54:20;;;;;;;5.68;3.20;;;9.70;99.90;;;;;;10559645;28;20024;-70
2021/12/01 01:59:21;;;;;;;6.63;3.05;;;9.70;99.90;;;;;;10557514;28;20377;-69
2021/12/01 02:04:23;;;;;;;7.97;3.25;;;9.60;99.90;;;;;;10566667;28;20059;-70
2021/12/01 02:09:24;;;;;;;5.70;2.92;;;9.70;99.90;;;;;;10563209;28;20701;-70
2021/12/01 02:14:26;;;;;;;4.97;2.80;;;9.70;99.90;;;;;;10567110;28;20458;-67
2021/12/01 02:19:27;;;;;;;4.85;2.88;;;9.70;99.90;;;;;;10566774;28;20027;-70
2021/12/01 02:24:28;;;;;;;4.03;2.70;;;9.80;99.90;;;;;;10559201;28;20560;-70
2021/12/01 02:29:29;;;;;;;5.90;3.38;;;9.80;99.90;;;;;;10565732;28;20072;-70
2021/12/01 02:34:33;;;;;;;4.05;2.50;;;9.80;99.90;;;;;;10574874;28;20027;-66
2021/12/01 02:39:36;;;;;;;3.65;2.50;;;9.80;99.90;;;;;;10563855;28;20073;-69
2021/12/01 02:44:37;;;;;;;3.22;2.28;;;9.80;99.90;;;;;;10556322;28;20044;-70
2021/12/01 02:49:37;;;;;;;4.10;2.38;;;9.80;99.90;;;;;;10573821;28;20483;-69
2021/12/01 02:54:39;;;;;;;3.58;2.10;;;9.80;99.90;;;;;;10562608;28;20024;-71
2021/12/01 02:59:41;;;;;;;4.22;1.90;;;9.80;99.90;;;;;;10538401;28;20085;-70
2021/12/01 03:04:41;;;;;;;2.65;1.52;;;9.80;99.90;;;;;;10565334;28;20557;-68
2021/12/01 03:09:42;;;;;;;2.50;1.80;;;9.90;99.90;;;;;;10573501;28;20024;-69
2021/12/01 03:14:44;;;;;;;3.35;1.98;;;9.80;99.90;;;;;;10571492;28;20023;-70
2021/12/01 03:19:45;;;;;;;2.70;1.30;;;9.90;99.90;;;;;;10570987;28;20024;-69
2021/12/01 03:24:46;;;;;;;3.13;1.70;;;9.80;99.90;;;;;;10581661;28;20469;-68
2021/12/01 03:29:49;;;;;;;4.18;1.15;;;9.90;99.90;;;;;;10583117;28;20028;-67
2021/12/01 03:34:50;;;;;;;1.85;1.15;;;9.90;99.90;;;;;;10582159;28;20072;-66
2021/12/01 03:39:50;;;;;;;4.57;1.40;;;9.90;99.90;;;;;;10582431;28;20081;-65
2021/12/01 03:44:56;;;;;;;2.75;0.90;;;9.90;99.90;;;;;;10583654;28;20116;-69
2021/12/01 03:49:56;;;;;;;1.88;1.00;;;9.90;99.90;;;;;;10582157;28;20012;-69
2021/12/01 03:54:57;;;;;;;1.98;0.98;;;9.90;99.90;;;;;;10581502;28;20388;-70
2021/12/01 03:59:58;;;;;;;1.80;1.05;;;9.90;99.90;;;;;;10581378;28;20035;-69
2021/12/01 04:04:59;;;;;;;2.00;0.90;;;9.90;99.90;;;;;;10582326;28;20058;-69
2021/12/01 04:10:00;;;;;;;1.85;1.10;;;9.90;99.90;;;;;;10580720;28;20028;-69
2021/12/01 04:15:03;;;;;;;2.53;1.00;;;9.90;99.90;;;;;;10580669;28;20047;-70
2021/12/01 04:20:04;;;;;;;1.60;0.98;;;9.90;99.90;;;;;;10580390;28;20023;-68
2021/12/01 04:25:05;;;;;;;1.20;0.82;;;9.90;99.90;;;;;;10580098;28;20071;-70
2021/12/01 04:30:10;;;;;;;1.02;0.90;;;9.90;99.90;;;;;;10579936;28;20045;-68
2021/12/01 04:35:13;;;;;;;1.85;0.90;;;9.90;99.90;;;;;;10579804;28;20016;-68
2021/12/01 04:40:15;;;;;;;1.83;1.10;;;9.90;99.90;;;;;;10579476;28;20522;-70
2021/12/01 04:45:18;;;;;;;1.15;0.80;;;9.90;99.90;;;;;;10560558;28;20082;-69
2021/12/01 04:50:22;;;;;;;2.08;0.95;;;9.90;99.90;;;;;;10578858;28;20020;-70
2021/12/01 04:55:23;;;;;;;2.13;0.93;;;9.90;99.90;;;;;;10579095;28;20047;-68
2021/12/01 05:00:26;;;;;;;1.33;0.80;;;9.90;99.90;;;;;;10579011;28;20043;-70
2021/12/01 05:05:27;;;;;;;1.90;0.98;;;9.90;99.90;;;;;;10578834;28;20126;-68
2021/12/01 05:10:28;;;;;;;1.10;0.80;;;9.90;99.90;;;;;;10578556;28;20126;-69
2021/12/01 05:15:29;;;;;;;2.00;0.90;;;9.90;99.90;;;;;;10560188;28;20484;-69
2021/12/01 05:20:30;;;;;;;1.23;0.90;;;9.90;99.90;;;;;;10578059;28;20042;-69
2021/12/01 05:25:30;;;;;;;1.25;0.90;;;9.90;99.90;;;;;;10578593;28;20036;-66
2021/12/01 05:30:31;;;;;;;1.10;0.80;;;9.90;99.90;;;;;;10580590;28;20442;-69
2021/12/01 05:35:33;;;;;;;1.77;0.90;;;9.90;99.90;;;;;;10577352;28;20106;-70
2021/12/01 05:40:34;;;;;;;1.20;0.95;;;9.90;99.90;;;;;;10577172;28;20032;-70
2021/12/01 05:45:36;;;;;;;1.65;1.17;;;9.90;99.90;;;;;;10578607;28;20444;-69
2021/12/01 05:50:36;;;;;;;1.40;1.10;;;9.90;99.90;;;;;;10579478;28;20438;-70
2021/12/01 05:55:38;;;;;;;1.30;0.98;;;9.90;99.90;;;;;;10577163;28;20027;-71
2021/12/01 06:00:38;;;;;;;1.30;1.20;;;9.80;99.90;;;;;;10578176;28;20036;-70
2021/12/01 06:05:39;;;;;;;1.35;0.98;;;9.90;99.90;;;;;;10576733;28;20506;-70
2021/12/01 06:10:41;;;;;;;2.55;1.00;;;9.80;99.90;;;;;;10576969;28;20031;-69
2021/12/01 06:15:42;;;;;;;1.30;1.00;;;9.90;99.90;;;;;;10579624;28;20108;-66
2021/12/01 06:20:43;;;;;;;1.05;0.90;;;9.90;99.90;;;;;;10580545;28;20023;-69
2021/12/01 06:25:44;;;;;;;1.15;0.80;;;9.80;99.90;;;;;;10578256;28;20430;-69
2021/12/01 06:30:45;;;;;;;0.90;0.70;;;9.80;99.90;;;;;;10559990;28;20115;-68
2021/12/01 06:35:49;;;;;;;0.65;0.65;;;9.80;99.90;;;;;;10541874;28;20477;-69
2021/12/01 06:40:50;;;;;;;1.00;0.90;;;9.80;99.90;;;;;;10578469;28;20024;-68
2021/12/01 06:45:50;;;;;;;0.65;0.65;;;9.80;99.90;;;;;;10575824;28;20495;-69
2021/12/01 06:50:51;;;;;;;1.20;0.80;;;9.80;99.90;;;;;;10557804;28;20036;-70
2021/12/01 06:55:53;;;;;;;0.70;0.65;;;9.90;99.90;;;;;;10575582;28;20028;-70
2021/12/01 07:00:54;;;;;;;0.90;0.70;;;9.80;99.90;;;;;;10575775;28;20449;-66
2021/12/01 07:05:55;;;;;;;0.60;0.50;;;9.80;99.90;;;;;;10575421;28;20047;-67
2021/12/01 07:10:56;;;;;;;0.68;0.60;;;9.80;99.90;;;;;;10579315;28;20030;-67
2021/12/01 07:15:56;;;;;;;1.08;0.73;;;9.80;99.90;;;;;;10583050;28;20030;-68
2021/12/01 07:20:58;;;;;;;0.60;0.57;;;9.80;99.90;;;;;;10582694;28;20036;-69
2021/12/01 07:31:56;;;;;;;0.75;0.65;;;9.80;99.90;;;;;;10582649;28;20031;-70
2021/12/01 07:36:57;;;;;;;1.15;0.65;;;9.90;99.90;;;;;;10584080;28;20031;-70
2021/12/01 07:41:57;;;;;;;0.90;0.80;;;9.80;99.90;;;;;;10585305;28;20125;-67
2021/12/01 07:46:59;;;;;;;0.90;0.77;;;9.80;99.90;;;;;;10570880;28;20103;-69
2021/12/01 07:52:00;;;;;;;1.20;0.77;;;9.80;99.90;;;;;;10589057;28;20032;-67
2021/12/01 07:57:01;;;;;;;0.98;0.80;;;9.80;99.90;;;;;;10584340;28;20020;-69
2021/12/01 08:02:03;;;;;;;1.15;0.80;;;9.80;99.90;;;;;;10584298;28;20532;-66
2021/12/01 08:07:03;;;;;;;1.00;0.88;;;9.80;99.90;;;;;;10590349;28;20370;-67
2021/12/01 08:12:07;;;;;;;2.60;1.23;;;9.80;99.90;;;;;;10581142;28;20043;-66
2021/12/01 08:17:08;;;;;;;1.25;1.10;;;9.80;99.90;;;;;;10580587;28;20111;-67
2021/12/01 08:22:09;;;;;;;1.88;1.02;;;9.80;99.90;;;;;;10580221;28;20547;-68
2021/12/01 08:27:10;;;;;;;2.47;0.93;;;9.80;99.90;;;;;;10580208;28;20036;-65
2021/12/01 08:32:11;;;;;;;1.48;1.00;;;9.80;99.90;;;;;;10579850;28;20024;-67
2021/12/01 08:37:13;;;;;;;1.92;1.05;;;9.80;99.90;;;;;;10580710;28;20473;-67
2021/12/01 08:42:20;;;;;;;1.13;1.00;;;9.80;99.90;;;;;;10579381;28;20372;-67
2021/12/01 08:47:26;;;;;;;2.17;1.00;;;9.90;99.90;;;;;;10579226;28;20032;-73
2021/12/01 08:52:27;;;;;;;1.20;1.10;;;9.90;99.90;;;;;;10578890;28;20427;-68
2021/12/01 08:57:27;;;;;;;2.10;1.00;;;10.00;99.90;;;;;;10579687;28;20503;-69
2021/12/01 09:02:28;;;;;;;2.47;1.08;;;10.00;99.90;;;;;;10578165;28;20079;-72
2021/12/01 09:07:29;;;;;;;2.25;1.23;;;10.00;99.90;;;;;;10578848;28;20028;-68
2021/12/01 09:12:30;;;;;;;1.90;0.90;;;10.10;99.90;;;;;;10578414;28;20558;-70
2021/12/01 09:17:31;;;;;;;4.85;1.10;;;10.10;99.90;;;;;;10579317;28;20024;-68
2021/12/01 09:22:32;;;;;;;4.60;0.85;;;10.10;99.90;;;;;;10577814;28;20043;-68
2021/12/01 09:27:33;;;;;;;3.50;1.00;;;10.10;99.90;;;;;;10578819;28;20027;-69
2021/12/01 09:32:37;;;;;;;3.03;0.95;;;10.10;99.90;;;;;;10577227;28;20509;-68
2021/12/01 09:37:38;;;;;;;10.00;1.65;;;10.10;99.90;;;;;;10578949;28;20043;-70
2021/12/01 09:42:48;;;;;;;4.72;0.95;;;10.10;99.90;;;;;;10576922;28;20050;-68
2021/12/01 09:47:50;;;;;;;4.18;0.93;;;10.10;99.90;;;;;;10578590;28;20076;-69
2021/12/01 09:52:51;;;;;;;3.38;1.10;;;10.30;99.90;;;;;;10579920;28;20026;-70
2021/12/01 09:58:14;;;;;;;3.03;0.88;;;10.00;99.90;;;;;;10580767;28;20047;-68
2021/12/01 10:03:15;;;;;;;1.77;0.80;;;10.10;99.90;;;;;;10578116;28;20051;-67
2021/12/01 10:08:23;;;;;;;6.15;1.10;;;10.00;99.90;;;;;;10576437;28;20028;-70
2021/12/01 10:13:30;;;;;;;6.00;1.00;;;10.10;99.90;;;;;;10579337;28;20458;-70
2021/12/01 10:18:40;;;;;;;2.53;0.80;;;10.10;99.90;;;;;;10578192;28;20023;-69
2021/12/01 10:23:50;;;;;;;7.00;1.13;;;10.10;99.90;;;;;;10578246;28;20066;-69
2021/12/01 10:29:05;;;;;;;2.15;0.82;;;10.10;99.90;;;;;;10577006;28;20027;-69
2021/12/01 10:34:28;;;;;;;4.28;0.63;;;10.20;99.90;;;;;;10578044;28;20031;-70
2021/12/01 10:39:29;;;;;;;2.40;0.55;;;10.30;99.90;;;;;;10576262;28;20055;-70
2021/12/01 10:44:30;;;;;;;3.00;0.70;;;10.30;99.90;;;;;;10577178;28;20456;-69
2021/12/01 10:49:34;;;;;;;4.63;0.77;;;10.30;99.90;;;;;;10584189;28;20099;-69
2021/12/01 10:54:36;;;;;;;3.00;0.55;;;10.30;99.90;;;;;;10583330;28;20020;-71
2021/12/01 10:59:45;;;;;;;4.78;0.70;;;10.40;99.90;;;;;;10584103;28;20027;-70
2021/12/01 11:04:47;;;;;;;3.88;1.15;;;10.30;99.90;;;;;;10582753;28;20052;-69
2021/12/01 11:10:09;;;;;;;1.13;0.45;;;10.30;99.90;;;;;;10584079;28;20031;-68
2021/12/01 11:15:37;;;;;;;3.63;0.70;;;10.30;99.90;;;;;;10583025;28;20095;-68
2021/12/01 11:20:43;;;;;;;9.53;1.07;;;10.30;99.90;;;;;;10580824;28;20114;-69
2021/12/01 11:25:47;;;;;;;5.22;0.77;;;10.30;99.90;;;;;;10582251;28;20357;-69
2021/12/01 11:30:53;;;;;;;6.55;1.05;;;10.30;99.90;;;;;;10581940;28;20478;-69
2021/12/01 11:35:57;;;;;;;6.10;0.98;;;10.20;99.90;;;;;;10582715;28;20031;-68
2021/12/01 11:40:59;;;;;;;4.00;0.80;;;10.20;99.90;;;;;;10584405;28;20023;-68
2021/12/01 11:46:00;;;;;;;8.30;1.45;;;10.20;99.90;;;;;;10581653;28;20040;-67
2021/12/01 11:51:16;;;;;;;3.80;0.90;;;10.20;99.90;;;;;;10581719;28;20035;-70
2021/12/01 11:56:29;;;;;;;3.92;0.75;;;10.20;99.90;;;;;;10580819;28;20126;-68
2021/12/01 12:01:36;;;;;;;5.70;1.30;;;10.20;99.90;;;;;;10580753;28;20504;-69
2021/12/01 12:06:47;;;;;;;6.63;1.23;;;10.10;99.90;;;;;;10580186;28;20043;-69
2021/12/01 12:11:52;;;;;;;9.40;1.30;;;10.20;99.90;;;;;;10580108;28;20422;-68
2021/12/01 12:17:12;;;;;;;4.22;1.30;;;10.20;99.90;;;;;;10580149;28;20028;-68
2021/12/01 12:22:23;;;;;;;5.28;1.10;;;10.20;99.90;;;;;;10579916;28;20057;-69
2021/12/01 12:27:50;;;;;;;4.18;0.88;;;10.10;99.90;;;;;;10581270;28;20042;-68
2021/12/01 12:33:21;;;;;;;7.00;1.30;;;10.20;99.90;;;;;;10579078;28;20039;-65
2021/12/01 12:38:23;;;;;;;8.70;1.15;;;10.30;99.90;;;;;;10579259;28;20027;-68
2021/12/01 12:43:24;;;;;;;7.25;2.10;;;10.30;99.90;;;;;;10578571;28;20039;-69
2021/12/01 12:48:30;;;;;;;7.10;2.28;;;10.30;99.90;;;;;;10580385;28;20468;-68
2021/12/01 12:53:31;;;;;;;7.35;1.30;;;10.20;99.90;;;;;;10578934;28;20023;-69
2021/12/01 12:58:36;;;;;;;6.95;1.08;;;10.30;99.90;;;;;;10578620;28;20027;-69
2021/12/01 13:03:38;;;;;;;6.25;1.50;;;10.20;99.90;;;;;;10577817;28;20069;-67
2021/12/01 13:08:46;;;;;;;4.28;1.20;;;10.30;99.90;;;;;;10577368;28;20031;-69
2021/12/01 13:13:58;;;;;;;9.97;1.57;;;10.30;99.90;;;;;;10580863;28;20068;-68
2021/12/01 13:19:07;;;;;;;7.22;1.17;;;10.30;99.90;;;;;;10577579;28;20106;-69
2021/12/01 13:24:08;;;;;;;7.28;1.10;;;10.30;99.90;;;;;;10577455;28;20519;-68
2021/12/01 13:29:11;;;;;;;7.15;1.23;;;10.30;99.90;;;;;;10578065;28;20031;-68
2021/12/01 13:34:14;;;;;;;5.63;0.85;;;10.20;99.90;;;;;;10577655;28;20019;-68
2021/12/01 13:39:19;;;;;;;7.05;1.23;;;10.20;99.90;;;;;;10577264;28;20023;-69
2021/12/01 13:44:23;;;;;;;5.32;1.17;;;10.30;99.90;;;;;;10577122;28;20043;-68
2021/12/01 13:49:36;;;;;;;3.55;0.77;;;10.20;99.90;;;;;;10576761;28;20015;-68
2021/12/01 13:54:37;;;;;;;2.80;1.00;;;10.30;99.90;;;;;;10576684;28;20102;-70
2021/12/01 13:59:47;;;;;;;7.70;0.80;;;10.20;99.90;;;;;;10576443;28;20036;-69
2021/12/01 14:04:50;;;;;;;5.13;1.02;;;10.20;99.90;;;;;;10576512;28;20078;-69
2021/12/01 14:09:58;;;;;;;4.00;1.30;;;10.20;99.90;;;;;;10578142;28;20388;-69
2021/12/01 14:14:59;;;;;;;5.60;0.90;;;10.20;99.90;;;;;;10576391;28;20047;-70
2021/12/01 14:20:00;;;;;;;7.32;1.55;;;10.20;99.90;;;;;;10580572;28;20408;-69
2021/12/01 14:25:02;;;;;;;6.32;1.33;;;10.20;99.90;;;;;;10585192;28;20046;-70
2021/12/01 14:30:12;;;;;;;5.32;0.90;;;10.20;99.90;;;;;;10585903;28;20028;-70
2021/12/01 14:35:13;;;;;;;5.72;1.48;;;10.20;99.90;;;;;;10585222;28;20023;-69
2021/12/01 14:40:19;;;;;;;6.40;1.15;;;10.10;99.90;;;;;;10584130;28;20012;-67
2021/12/01 14:45:24;;;;;;;6.32;0.80;;;10.10;99.90;;;;;;10585206;28;20429;-68
2021/12/01 14:50:25;;;;;;;6.45;1.58;;;10.20;99.90;;;;;;10583376;28;20020;-68
2021/12/01 14:55:26;;;;;;;7.03;1.52;;;10.10;99.90;;;;;;10584223;28;20028;-69
2021/12/01 15:00:30;;;;;;;7.55;1.33;;;10.10;99.90;;;;;;10585401;28;20149;-68
2021/12/01 15:05:31;;;;;;;7.72;1.98;;;10.10;99.90;;;;;;10584628;28;20091;-67
2021/12/01 15:10:43;;;;;;;5.60;1.38;;;10.10;99.90;;;;;;10584766;28;20385;-69
2021/12/01 15:15:46;;;;;;;6.07;1.20;;;10.10;99.90;;;;;;10582985;28;20031;-68
2021/12/01 15:20:51;;;;;;;6.68;1.63;;;10.10;99.90;;;;;;10584312;28;20026;-68
2021/12/01 15:25:52;;;;;;;4.80;1.05;;;10.00;99.90;;;;;;10582485;28;20058;-69
2021/12/01 15:30:53;;;;;;;8.85;1.10;;;10.10;99.90;;;;;;10581738;28;20031;-68
2021/12/01 15:35:53;;;;;;;3.55;1.15;;;10.00;99.90;;;;;;10588237;28;20051;-71
2021/12/01 15:40:54;;;;;;;7.07;1.17;;;10.00;99.90;;;;;;10592185;28;20012;-69
2021/12/01 15:45:55;;;;;;;8.57;1.33;;;10.00;99.90;;;;;;10571049;28;20028;-69
2021/12/01 15:50:56;;;;;;;3.83;1.05;;;10.00;99.90;;;;;;10564658;28;20032;-69
2021/12/01 15:55:59;;;;;;;5.25;1.40;;;10.00;99.90;;;;;;10582070;28;20023;-67
2021/12/01 16:01:02;;;;;;;5.07;1.27;;;9.90;99.90;;;;;;10581643;28;20484;-72
2021/12/01 16:06:02;;;;;;;5.28;1.00;;;9.90;99.90;;;;;;10582026;28;20549;-72
2021/12/01 16:11:09;;;;;;;8.10;1.20;;;9.90;99.90;;;;;;10583064;28;20110;-70
2021/12/01 16:16:12;;;;;;;6.15;1.20;;;9.90;99.90;;;;;;10582740;28;20103;-70
2021/12/01 16:21:13;;;;;;;5.15;1.10;;;9.90;99.90;;;;;;10582792;28;20036;-72
2021/12/01 16:26:17;;;;;;;4.68;1.08;;;9.90;99.90;;;;;;10582311;28;20126;-73
2021/12/01 16:37:12;;;;;;;;;;;9.80;99.90;;;;;;10582035;28;20127;-71
2021/12/01 16:42:13;;;;;;;5.55;1.00;;;9.80;99.90;;;;;;10578786;28;19908;-72
2021/12/01 16:47:14;;;;;;;5.05;0.80;;;9.80;99.90;;;;;;10580874;28;20027;-72
2021/12/01 16:52:15;;;;;;;5.75;1.10;;;9.80;99.90;;;;;;10578389;28;20094;-70
2021/12/01 16:57:16;;;;;;;8.05;1.20;;;9.70;99.90;;;;;;10559910;28;20466;-71
2021/12/01 17:02:18;;;;;;;6.78;1.08;;;9.70;99.90;;;;;;10578674;28;20048;-69
2021/12/01 17:12:22;;;;;;;6.20;2.38;;;9.60;99.90;;;;;;10578783;28;20019;-71
2021/12/01 17:17:23;;;;;;;10.10;1.35;;;9.60;99.90;;;;;;10560952;28;20114;-70
2021/12/01 17:22:24;;;;;;;5.13;1.15;;;9.60;99.90;;;;;;10577958;28;20478;-71
2021/12/01 17:27:26;;;;;;;3.75;1.30;;;9.60;99.90;;;;;;10579388;28;20032;-70
2021/12/01 17:32:28;;;;;;;2.92;0.90;;;9.60;99.90;;;;;;10582185;28;20024;-69
2021/12/01 17:37:29;;;;;;;5.20;1.00;;;9.60;99.90;;;;;;10582591;28;20023;-78
2021/12/01 17:42:29;;;;;;;4.25;0.93;;;9.60;99.90;;;;;;10578558;28;20040;-69
2021/12/01 17:47:30;;;;;;;3.70;1.33;;;9.50;99.90;;;;;;10578789;28;20019;-68
2021/12/01 17:52:31;;;;;;;4.85;1.27;;;9.50;99.90;;;;;;10578776;28;20035;-68
2021/12/01 17:57:32;;;;;;;4.63;1.00;;;9.50;99.90;;;;;;10578951;28;20137;-69
2021/12/01 18:02:33;;;;;;;5.35;1.00;;;9.50;99.90;;;;;;10578636;28;20089;-69
2021/12/01 18:07:35;;;;;;;6.43;1.55;;;9.40;99.90;;;;;;10578549;28;20046;-70
2021/12/01 18:12:39;;;;;;;3.90;1.45;;;9.40;99.90;;;;;;10579871;28;20053;-70
2021/12/01 18:17:40;;;;;;;3.22;1.05;;;9.40;99.90;;;;;;10579179;28;20422;-71
2021/12/01 18:22:41;;;;;;;2.20;1.00;;;9.40;99.90;;;;;;10579032;28;20035;-71
2021/12/01 18:27:42;;;;;;;5.00;1.45;;;9.40;99.90;;;;;;10578865;28;20108;-71
2021/12/01 18:32:43;;;;;;;2.90;1.25;;;9.40;99.90;;;;;;10578130;28;20058;-71
2021/12/01 18:37:44;;;;;;;3.35;1.35;;;9.40;99.90;;;;;;10575671;28;20035;-71
2021/12/01 18:43:03;;;;;;;6.70;0.95;;;9.40;99.90;;;;;;10578584;28;20032;-69
2021/12/01 18:48:04;;;;;;;7.07;1.80;;;9.40;99.90;;;;;;10578867;28;20050;-70
2021/12/01 18:53:05;;;;;;;5.15;1.27;;;9.40;99.90;;;;;;10576336;28;20095;-70
2021/12/01 18:58:06;;;;;;;4.57;1.42;;;9.40;99.90;;;;;;10576077;28;20408;-70
2021/12/01 19:03:07;;;;;;;4.70;1.40;;;9.30;99.90;;;;;;10575174;28;20044;-71
2021/12/01 19:08:08;;;;;;;5.25;1.25;;;9.30;99.90;;;;;;10581026;28;20488;-72
2021/12/01 19:13:09;;;;;;;5.38;1.60;;;9.30;99.90;;;;;;10583249;28;20034;-71
2021/12/01 19:18:12;;;;;;;5.40;1.23;;;9.30;99.90;;;;;;10583138;28;20500;-70
2021/12/01 19:23:13;;;;;;;7.43;1.30;;;9.30;99.90;;;;;;10583684;28;20484;-71
2021/12/01 19:28:13;;;;;;;4.50;1.10;;;9.30;99.90;;;;;;10582866;28;20418;-67
2021/12/01 19:33:15;;;;;;;6.15;1.35;;;9.30;99.90;;;;;;10582256;28;20548;-69
2021/12/01 19:38:15;;;;;;;6.38;1.13;;;9.30;99.90;;;;;;10582079;28;20047;-71
2021/12/01 19:43:16;;;;;;;4.28;1.17;;;9.20;99.90;;;;;;10582080;28;20060;-71
2021/12/01 19:48:18;;;;;;;2.90;0.80;;;9.30;99.90;;;;;;10582344;28;20016;-71
2021/12/01 19:53:19;;;;;;;4.45;2.60;;;9.20;99.90;;;;;;10582565;28;20118;-69
2021/12/01 19:58:20;;;;;;;3.33;0.65;;;9.30;99.90;;;;;;10581516;28;20051;-69
2021/12/01 20:03:21;;;;;;;3.38;1.20;;;9.20;99.90;;;;;;10581959;28;20079;-70
2021/12/01 20:08:22;;;;;;;2.88;0.73;;;9.20;99.90;;;;;;10581253;28;20035;-70
2021/12/01 20:13:31;;;;;;;3.00;0.88;;;9.20;99.90;;;;;;10580779;28;20393;-68
2021/12/01 20:24:12;;;;;;;3.90;0.82;;;9.20;99.90;;;;;;10582372;28;19911;-68
2021/12/01 20:29:13;;;;;;;3.03;0.90;;;9.20;99.90;;;;;;10580196;28;20024;-71
2021/12/01 20:34:14;;;;;;;1.85;0.90;;;9.10;99.90;;;;;;10579694;28;20471;-71
2021/12/01 20:39:16;;;;;;;2.05;0.90;;;9.10;99.90;;;;;;10580177;28;20114;-68
2021/12/01 20:44:19;;;;;;;5.13;1.58;;;9.10;99.90;;;;;;10579582;28;20094;-71
2021/12/01 20:54:54;;;;;;;3.72;1.17;;;9.20;99.90;;;;;;10579063;28;20493;-71
2021/12/01 21:05:07;;;;;;;7.13;1.17;;;9.10;99.90;;;;;;10578434;28;20058;-68
2021/12/01 21:10:08;;;;;;;3.28;1.30;;;9.00;99.90;;;;;;10578553;28;20024;-72
2021/12/01 21:15:09;;;;;;;3.40;1.00;;;9.00;99.90;;;;;;10578245;28;20145;-71
2021/12/01 21:20:10;;;;;;;1.95;0.80;;;9.00;99.90;;;;;;10578194;28;20141;-70
2021/12/01 21:25:15;;;;;;;4.53;1.23;;;9.00;99.90;;;;;;10577963;28;20374;-69
2021/12/01 21:30:17;;;;;;;6.20;1.27;;;9.00;99.90;;;;;;10577229;28;20016;-69
2021/12/01 21:35:18;;;;;;;2.53;0.90;;;8.90;99.90;;;;;;10577966;28;20038;-70
2021/12/01 21:40:19;;;;;;;1.50;0.80;;;8.90;99.90;;;;;;10577963;28;20024;-71
2021/12/01 21:45:20;;;;;;;4.20;1.00;;;8.90;99.90;;;;;;10577941;28;20036;-69
2021/12/01 21:50:22;;;;;;;2.40;0.60;;;8.90;99.90;;;;;;10577788;28;20076;-70
2021/12/01 21:55:25;;;;;;;1.30;0.70;;;8.90;99.90;;;;;;10577300;28;20039;-71
2021/12/01 22:00:26;;;;;;;2.50;1.00;;;8.90;99.90;;;;;;10577621;28;20023;-70
2021/12/01 22:05:27;;;;;;;5.85;0.90;;;8.80;99.90;;;;;;10577176;28;20218;-70
2021/12/01 22:10:30;;;;;;;2.83;1.05;;;8.90;99.90;;;;;;10577206;28;20533;-70
2021/12/01 22:15:31;;;;;;;5.00;0.77;;;8.90;99.90;;;;;;10577139;28;20035;-72
2021/12/01 22:20:38;;;;;;;2.33;0.85;;;8.80;99.90;;;;;;10581448;28;20164;-69
2021/12/01 22:25:41;;;;;;;1.80;0.70;;;8.80;99.90;;;;;;10579887;28;20130;-68
2021/12/01 22:30:42;;;;;;;1.50;0.85;;;8.80;99.90;;;;;;10576811;28;20020;-70
2021/12/01 22:35:43;;;;;;;1.65;1.10;;;8.80;99.90;;;;;;10577778;28;20031;-70
2021/12/01 22:40:44;;;;;;;5.90;1.05;;;8.90;99.90;;;;;;10580413;28;20035;-71
2021/12/01 22:45:46;;;;;;;2.95;0.80;;;8.90;99.90;;;;;;10584460;28;20080;-69
2021/12/01 22:50:47;;;;;;;2.08;0.80;;;8.70;99.90;;;;;;10586918;28;20099;-69
2021/12/01 22:56:02;;;;;;;2.83;0.50;;;8.80;99.90;;;;;;10585678;28;20134;-68
2021/12/01 23:01:07;;;;;;;3.70;0.60;;;8.70;99.90;;;;;;10583720;28;20028;-67
2021/12/01 23:06:08;;;;;;;3.40;0.85;;;8.70;99.90;;;;;;10583515;28;20097;-70
2021/12/01 23:11:09;;;;;;;3.50;0.80;;;8.70;99.90;;;;;;10583670;28;20123;-68
2021/12/01 23:16:09;;;;;;;2.33;0.80;;;8.70;99.90;;;;;;10583792;28;20111;-70
2021/12/01 23:21:11;;;;;;;2.83;1.10;;;8.70;99.90;;;;;;10583456;28;20054;-69
2021/12/01 23:31:32;;;;;;;2.30;0.80;;;8.60;99.90;;;;;;10583442;28;20404;-69
2021/12/01 23:36:38;;;;;;;3.85;0.80;;;8.60;99.90;;;;;;10582986;28;20030;-70
2021/12/01 23:41:39;;;;;;;1.67;0.57;;;8.60;99.90;;;;;;10582684;28;20031;-68
2021/12/01 23:51:50;;;;;;;5.00;0.70;;;8.60;99.90;;;;;;10581602;28;20024;-70
2021/12/01 23:56:52;;;;;;;3.15;0.77;;;8.60;99.80;;;;;;10581728;28;20119;-70
